Time;durP1;ratioP1;P1;durP2;ratioP2;P2;SDS_P1;SDS_P2;PMS_P1;PMS_P2;Temp;Humidity;BMP_temperature;BMP_pressure;BME280_temperature;BME280_humidity;BME280_pressure;Samples;Min_cycle;Max_cycle;Signal;HPM_P1;HPM_P2
2022/03/12 00:04:30;;;;;;;13.20;3.40;;;10.60;87.70;;;;;;20593705;28;20060;-47
2022/03/12 00:14:32;;;;;;;8.48;3.50;;;10.70;88.90;;;;;;20587038;28;20393;-48
2022/03/12 00:24:34;;;;;;;9.60;4.32;;;10.60;90.50;;;;;;20590595;28;20046;-47
2022/03/12 00:34:35;;;;;;;9.27;3.97;;;10.50;91.40;;;;;;20594035;28;20046;-48
2022/03/12 00:44:36;;;;;;;8.05;3.90;;;10.50;91.10;;;;;;20589235;28;20047;-48
2022/03/12 00:54:37;;;;;;;8.07;3.00;;;10.50;90.90;;;;;;20568949;28;20034;-47
2022/03/12 01:04:38;;;;;;;10.02;3.63;;;10.60;90.80;;;;;;20549507;28;20050;-47
2022/03/12 01:14:41;;;;;;;7.97;3.80;;;10.70;91.30;;;;;;20557259;28;20043;-48
2022/03/12 01:24:43;;;;;;;8.88;4.18;;;10.80;90.80;;;;;;20561598;28;20241;-48
2022/03/12 01:34:44;;;;;;;12.95;4.00;;;10.80;92.20;;;;;;20582102;28;20053;-48
2022/03/12 01:44:46;;;;;;;8.30;3.28;;;10.60;95.20;;;;;;20572463;28;20049;-48
2022/03/12 01:54:47;;;;;;;10.88;4.85;;;10.30;96.80;;;;;;20577897;28;20031;-48
2022/03/12 02:04:52;;;;;;;9.93;4.65;;;10.10;99.20;;;;;;20578337;28;20046;-47
2022/03/12 02:14:53;;;;;;;10.57;3.60;;;10.10;99.70;;;;;;20567552;28;20038;-48
2022/03/12 02:24:55;;;;;;;8.40;3.40;;;10.10;99.90;;;;;;20559168;28;20092;-47
2022/03/12 02:34:58;;;;;;;9.98;4.28;;;10.30;99.40;;;;;;20555741;28;20038;-47
2022/03/12 02:45:00;;;;;;;10.00;4.47;;;10.30;98.70;;;;;;20555881;28;20474;-47
2022/03/12 02:55:01;;;;;;;9.02;4.10;;;10.40;98.60;;;;;;20565369;28;20530;-47
2022/03/12 03:05:02;;;;;;;10.95;4.47;;;10.40;98.50;;;;;;20559728;28;20058;-47
2022/03/12 03:15:04;;;;;;;11.98;4.00;;;10.40;98.90;;;;;;20578369;28;20038;-47
2022/03/12 03:25:06;;;;;;;10.70;4.65;;;10.20;99.00;;;;;;20559243;28;20050;-47
2022/03/12 03:35:07;;;;;;;11.40;3.72;;;10.30;99.50;;;;;;20565034;28;20057;-48
2022/03/12 03:45:09;;;;;;;9.60;3.28;;;10.10;99.90;;;;;;20575241;28;20046;-47
2022/03/12 03:55:10;;;;;;;8.95;3.88;;;10.00;99.90;;;;;;20575069;28;20038;-47
2022/03/12 04:05:11;;;;;;;11.55;4.25;;;9.90;99.90;;;;;;20584030;28;20051;-47
2022/03/12 04:15:12;;;;;;;8.98;3.20;;;10.00;99.90;;;;;;20595317;28;20045;-48
2022/03/12 04:25:14;;;;;;;6.80;2.70;;;10.00;99.90;;;;;;20594496;28;20046;-47
2022/03/12 04:35:19;;;;;;;4.65;2.40;;;10.00;99.90;;;;;;20591229;28;20414;-48
2022/03/12 04:45:25;;;;;;;5.75;2.53;;;9.90;99.90;;;;;;20593329;28;20046;-48
2022/03/12 04:55:28;;;;;;;5.78;2.60;;;9.90;99.90;;;;;;20592539;28;20046;-48
2022/03/12 05:05:30;;;;;;;6.80;2.55;;;9.90;99.90;;;;;;20508903;28;20322;-48
2022/03/12 05:15:37;;;;;;;5.75;2.28;;;9.90;99.90;;;;;;20512439;28;20044;-47
2022/03/12 05:25:41;;;;;;;5.78;2.65;;;9.90;99.90;;;;;;20550878;28;20039;-47
2022/03/12 05:35:45;;;;;;;4.20;1.80;;;9.80;99.90;;;;;;20553622;28;20046;-47
2022/03/12 05:45:49;;;;;;;4.85;2.47;;;9.70;99.90;;;;;;20572343;28;20058;-48
2022/03/12 05:55:50;;;;;;;7.18;2.40;;;9.60;99.90;;;;;;20553787;28;20050;-48
2022/03/12 06:05:58;;;;;;;5.78;2.05;;;9.60;99.90;;;;;;20537044;28;20636;-47
2022/03/12 06:16:02;;;;;;;8.68;2.05;;;9.50;99.90;;;;;;20547609;28;20038;-47
2022/03/12 06:26:04;;;;;;;5.55;2.38;;;9.40;99.90;;;;;;20551617;28;20054;-48
2022/03/12 06:36:08;;;;;;;6.13;2.03;;;9.50;99.90;;;;;;20554989;28;20050;-48
2022/03/12 06:46:15;;;;;;;4.60;1.85;;;9.50;99.90;;;;;;20559941;28;20418;-47
2022/03/12 06:56:17;;;;;;;9.10;1.83;;;9.40;99.90;;;;;;20578567;28;20035;-47
2022/03/12 07:06:18;;;;;;;4.38;1.60;;;9.50;99.90;;;;;;20559873;28;20042;-47
2022/03/12 07:16:19;;;;;;;3.90;1.92;;;9.60;99.90;;;;;;20566240;28;20042;-47
2022/03/12 07:26:21;;;;;;;4.15;2.10;;;9.70;99.90;;;;;;20571660;28;20059;-47
2022/03/12 07:36:23;;;;;;;6.43;2.15;;;9.70;99.90;;;;;;20584291;28;20369;-47
2022/03/12 07:46:28;;;;;;;6.07;1.90;;;9.80;99.90;;;;;;20593947;28;20054;-47
2022/03/12 07:56:30;;;;;;;7.03;1.90;;;9.90;99.90;;;;;;20590740;28;20270;-48
2022/03/12 08:06:32;;;;;;;6.25;2.25;;;10.00;99.90;;;;;;20590335;28;22016;-47
2022/03/12 08:16:35;;;;;;;5.68;2.42;;;10.10;99.90;;;;;;20595908;28;20053;-47
2022/03/12 08:26:41;;;;;;;5.38;2.13;;;10.30;99.90;;;;;;20540950;28;20042;-47
2022/03/12 08:36:42;;;;;;;3.30;1.77;;;10.40;99.90;;;;;;20584759;28;20050;-47
2022/03/12 08:46:45;;;;;;;4.80;1.77;;;10.60;99.90;;;;;;20571710;28;20250;-47
2022/03/12 08:56:46;;;;;;;5.03;1.63;;;11.00;99.90;;;;;;20575183;28;20144;-47
2022/03/12 09:06:48;;;;;;;5.25;2.20;;;11.10;99.90;;;;;;20569925;28;20569;-47
2022/03/12 09:16:49;;;;;;;4.72;2.20;;;11.20;99.90;;;;;;20568460;28;20046;-48
2022/03/12 09:26:50;;;;;;;6.53;1.95;;;11.10;99.90;;;;;;20571633;28;20045;-47
2022/03/12 09:36:51;;;;;;;2.80;1.45;;;11.50;99.90;;;;;;20639678;28;20038;-48
2022/03/12 09:46:52;;;;;;;2.30;0.70;;;11.90;99.90;;;;;;20627778;28;20140;-47
2022/03/12 09:56:54;;;;;;;6.03;1.40;;;12.10;99.90;;;;;;20620436;28;20053;-47
2022/03/12 10:06:56;;;;;;;2.55;1.00;;;11.90;99.90;;;;;;20607994;28;20056;-47
2022/03/12 10:17:00;;;;;;;1.92;0.63;;;11.90;99.90;;;;;;20627742;28;20075;-47
2022/03/12 10:27:03;;;;;;;3.40;1.10;;;12.00;99.90;;;;;;20610662;28;20441;-47
2022/03/12 10:37:10;;;;;;;3.20;0.93;;;12.10;99.90;;;;;;20618925;28;20117;-48
2022/03/12 10:47:22;;;;;;;4.88;1.27;;;12.10;99.90;;;;;;20640862;28;20401;-48
2022/03/12 10:57:23;;;;;;;1.95;0.80;;;12.30;99.90;;;;;;20653955;28;20502;-48
2022/03/12 11:07:29;;;;;;;5.53;1.05;;;12.60;99.90;;;;;;20668419;28;20053;-48
2022/03/12 11:17:35;;;;;;;3.05;0.68;;;12.90;99.90;;;;;;20634863;28;20070;-48
2022/03/12 11:27:37;;;;;;;2.33;0.80;;;13.30;99.90;;;;;;20653575;28;20077;-47
2022/03/12 11:37:41;;;;;;;2.42;0.70;;;13.80;99.90;;;;;;20646936;28;20034;-48
2022/03/12 11:47:45;;;;;;;2.88;0.80;;;14.60;99.90;;;;;;20618252;28;20251;-48
2022/03/12 11:57:48;;;;;;;3.53;1.02;;;14.20;99.90;;;;;;20639997;28;20052;-48
2022/03/12 12:07:51;;;;;;;2.65;0.88;;;14.90;99.90;;;;;;20650842;28;20406;-48
2022/03/12 12:17:53;;;;;;;3.17;1.27;;;14.60;99.90;;;;;;20631091;28;20034;-48
2022/03/12 12:27:54;;;;;;;1.23;0.50;;;14.90;99.90;;;;;;20635663;28;20251;-48
2022/03/12 12:38:04;;;;;;;3.50;0.80;;;15.80;99.90;;;;;;20628003;28;20065;-48
2022/03/12 12:48:14;;;;;;;1.60;0.65;;;15.70;99.90;;;;;;20673363;28;20058;-48
2022/03/12 12:58:15;;;;;;;2.88;0.75;;;15.30;99.90;;;;;;20664750;28;20589;-48
2022/03/12 13:08:17;;;;;;;1.95;0.73;;;15.80;99.90;;;;;;20650544;28;20039;-47
2022/03/12 13:18:27;;;;;;;2.47;0.70;;;16.60;99.90;;;;;;20569682;28;20042;-48
2022/03/12 13:28:44;;;;;;;1.30;0.45;;;16.40;99.10;;;;;;20582576;28;20525;-48
2022/03/12 13:38:46;;;;;;;2.35;0.40;;;17.30;97.80;;;;;;20585795;28;20446;-48
2022/03/12 13:49:09;;;;;;;1.15;0.43;;;17.50;96.40;;;;;;20635233;28;20038;-48
2022/03/12 13:59:16;;;;;;;4.28;0.80;;;17.80;96.50;;;;;;20641903;28;20041;-48
2022/03/12 14:09:21;;;;;;;1.35;0.50;;;17.50;96.10;;;;;;20629902;28;20677;-49
2022/03/12 14:19:23;;;;;;;0.88;0.50;;;17.60;96.40;;;;;;20624659;28;20410;-49
2022/03/12 14:29:32;;;;;;;1.55;0.57;;;17.80;96.40;;;;;;20633117;28;21388;-48
2022/03/12 14:39:34;;;;;;;1.15;0.43;;;18.50;94.30;;;;;;20620159;28;20034;-49
2022/03/12 14:49:38;;;;;;;1.27;0.40;;;18.20;95.40;;;;;;20628312;28;20527;-49
2022/03/12 14:59:42;;;;;;;1.13;0.43;;;17.40;94.50;;;;;;20622267;28;20085;-48
2022/03/12 15:09:51;;;;;;;1.02;0.57;;;16.70;94.50;;;;;;20639153;28;20041;-48
2022/03/12 15:20:14;;;;;;;3.28;0.30;;;15.80;95.60;;;;;;20618429;28;20050;-48
2022/03/12 15:30:15;;;;;;;1.98;0.50;;;15.90;96.10;;;;;;20620905;28;20049;-48
2022/03/12 15:40:16;;;;;;;3.78;0.65;;;15.90;95.50;;;;;;20619130;28;20399;-48
2022/03/12 15:50:18;;;;;;;1.67;0.77;;;15.70;95.60;;;;;;20628187;28;20054;-48
2022/03/12 16:00:22;;;;;;;1.60;0.57;;;15.30;95.80;;;;;;20621819;28;20052;-48
2022/03/12 16:10:23;;;;;;;2.13;0.60;;;15.10;97.20;;;;;;20639207;28;20469;-48
2022/03/12 16:20:29;;;;;;;3.45;0.50;;;15.00;96.90;;;;;;20621793;28;20522;-49
2022/03/12 16:30:31;;;;;;;2.33;0.55;;;14.90;97.40;;;;;;20629237;28;20042;-49
2022/03/12 16:40:36;;;;;;;1.52;0.50;;;14.80;97.80;;;;;;20647663;28;20061;-49
2022/03/12 16:50:38;;;;;;;2.00;1.17;;;14.60;98.00;;;;;;20658811;28;20050;-48
2022/03/12 17:00:39;;;;;;;2.95;0.47;;;14.50;98.90;;;;;;20637654;28;20031;-48
2022/03/12 17:10:48;;;;;;;4.07;0.55;;;14.30;99.50;;;;;;20639369;28;20039;-49
2022/03/12 17:20:53;;;;;;;2.60;0.80;;;14.10;99.90;;;;;;20641066;28;20121;-49
2022/03/12 17:30:55;;;;;;;3.35;1.20;;;14.00;99.90;;;;;;20640437;28;20049;-48
2022/03/12 17:40:57;;;;;;;2.55;1.02;;;13.90;99.90;;;;;;20644875;28;20034;-48
2022/03/12 17:50:58;;;;;;;3.28;1.30;;;13.70;99.90;;;;;;20638870;28;20050;-49
2022/03/12 18:01:00;;;;;;;2.85;1.17;;;13.60;99.90;;;;;;20642874;28;20027;-48
2022/03/12 18:11:02;;;;;;;6.22;2.13;;;13.50;99.90;;;;;;20641702;28;20048;-48
2022/03/12 18:21:03;;;;;;;2.95;1.42;;;13.50;99.90;;;;;;20641234;28;20044;-48
2022/03/12 18:31:12;;;;;;;4.90;1.38;;;13.50;99.90;;;;;;20626501;28;20475;-48
2022/03/12 18:41:13;;;;;;;4.50;1.40;;;13.50;99.90;;;;;;20627261;28;20554;-48
2022/03/12 18:51:14;;;;;;;6.78;1.90;;;13.50;99.90;;;;;;20626323;28;20052;-48
2022/03/12 19:01:17;;;;;;;3.45;1.70;;;13.60;99.90;;;;;;20635769;28;20410;-48
2022/03/12 19:11:18;;;;;;;3.42;1.42;;;13.60;99.90;;;;;;20614948;28;20554;-48
2022/03/12 19:21:20;;;;;;;3.13;1.70;;;13.60;99.90;;;;;;20636126;28;20065;-48
2022/03/12 19:31:22;;;;;;;7.85;2.05;;;13.60;99.90;;;;;;20624150;28;20046;-48
2022/03/12 19:41:24;;;;;;;6.30;2.53;;;13.50;99.90;;;;;;20638418;28;20122;-48
2022/03/12 19:51:25;;;;;;;5.40;2.45;;;13.60;99.90;;;;;;20670102;28;20057;-48
2022/03/12 20:01:27;;;;;;;6.18;2.28;;;13.60;99.90;;;;;;20654812;28;20043;-48
2022/03/12 20:11:28;;;;;;;5.25;2.33;;;13.50;99.90;;;;;;20615699;28;20055;-48
2022/03/12 20:21:29;;;;;;;6.82;2.58;;;13.40;99.90;;;;;;20647832;28;20045;-48
2022/03/12 20:31:30;;;;;;;8.25;2.65;;;13.40;99.90;;;;;;20623362;28;20050;-49
2022/03/12 20:41:32;;;;;;;5.15;2.97;;;13.30;99.90;;;;;;20628297;28;20038;-49
2022/03/12 20:51:34;;;;;;;7.07;2.97;;;13.30;99.90;;;;;;20646251;28;20752;-48
2022/03/12 21:01:36;;;;;;;9.75;3.17;;;13.10;99.90;;;;;;20659521;28;20034;-48
2022/03/12 21:11:37;;;;;;;8.45;2.72;;;13.00;99.90;;;;;;20614144;28;20053;-48
2022/03/12 21:21:40;;;;;;;8.00;3.35;;;13.00;99.90;;;;;;20662723;28;20041;-47
2022/03/12 21:31:41;;;;;;;6.18;2.50;;;12.80;99.90;;;;;;20662179;28;20510;-48
2022/03/12 21:41:43;;;;;;;9.20;3.83;;;12.80;99.90;;;;;;20654954;28;22565;-47
2022/03/12 21:51:44;;;;;;;6.88;2.65;;;12.70;99.90;;;;;;20670393;28;20038;-48
2022/03/12 22:01:45;;;;;;;8.23;3.17;;;12.60;99.90;;;;;;20636712;28;20051;-48
2022/03/12 22:11:49;;;;;;;7.57;3.83;;;12.50;99.90;;;;;;20642570;28;20046;-48
2022/03/12 22:21:56;;;;;;;7.68;2.70;;;12.50;99.90;;;;;;20643218;28;20410;-48
2022/03/12 22:31:59;;;;;;;7.60;2.75;;;12.40;99.90;;;;;;20639341;28;20537;-48
2022/03/12 22:42:01;;;;;;;5.40;2.80;;;12.40;99.90;;;;;;20634598;28;20038;-48
2022/03/12 22:52:02;;;;;;;10.02;3.28;;;12.30;99.90;;;;;;20625444;28;20053;-47
2022/03/12 23:02:13;;;;;;;6.68;3.00;;;12.20;99.90;;;;;;20614277;28;20049;-48
2022/03/12 23:12:19;;;;;;;6.18;3.15;;;12.20;99.90;;;;;;20614452;28;20092;-47
2022/03/12 23:22:22;;;;;;;5.82;2.28;;;12.10;99.90;;;;;;20633742;28;20035;-48
2022/03/12 23:32:26;;;;;;;5.25;2.50;;;12.10;99.90;;;;;;20627787;28;20467;-48
2022/03/12 23:42:30;;;;;;;6.05;2.25;;;12.00;99.90;;;;;;20626971;28;20046;-48
2022/03/12 23:52:34;;;;;;;5.38;1.80;;;12.00;99.90;;;;;;20626724;28;20409;-47
